Time;durP1;ratioP1;P1;durP2;ratioP2;P2;SDS_P1;SDS_P2;PMS_P1;PMS_P2;Temp;Humidity;BMP_temperature;BMP_pressure;BME280_temperature;BME280_humidity;BME280_pressure;Samples;Min_cycle;Max_cycle;Signal;HPM_P1;HPM_P2
2021/05/08 00:00:51;;;;;;;3.97;2.50;;;;;;;;;;5081418;28;20205;-60
2021/05/08 00:03:18;;;;;;;3.87;2.83;;;;;;;;;;5085066;28;20176;-57
2021/05/08 00:05:46;;;;;;;4.00;2.87;;;;;;;;;;5083156;28;20215;-57
2021/05/08 00:08:11;;;;;;;3.93;3.20;;;;;;;;;;5082898;28;20210;-57
2021/05/08 00:10:36;;;;;;;3.50;2.93;;;;;;;;;;5084687;28;20201;-57
2021/05/08 00:13:01;;;;;;;5.57;3.50;;;;;;;;;;5085423;28;20188;-57
2021/05/08 00:15:31;;;;;;;3.90;3.50;;;;;;;;;;5087492;28;20241;-57
2021/05/08 00:17:56;;;;;;;5.20;4.20;;;;;;;;;;5083373;28;20726;-58
2021/05/08 00:20:22;;;;;;;6.90;3.90;;;;;;;;;;5082285;28;20208;-58
2021/05/08 00:22:47;;;;;;;7.13;4.07;;;;;;;;;;5083262;28;20283;-57
2021/05/08 00:25:14;;;;;;;6.63;4.27;;;;;;;;;;5085258;28;20798;-59
2021/05/08 00:27:40;;;;;;;8.47;4.27;;;;;;;;;;5083208;28;20212;-58
2021/05/08 00:30:08;;;;;;;7.77;4.27;;;;;;;;;;5082619;28;20287;-57
2021/05/08 00:32:33;;;;;;;5.40;4.33;;;;;;;;;;5083735;28;20181;-57
2021/05/08 00:35:01;;;;;;;5.80;3.90;;;;;;;;;;5079908;28;20173;-60
2021/05/08 00:37:29;;;;;;;3.80;3.30;;;;;;;;;;5083285;28;20203;-58
2021/05/08 00:39:55;;;;;;;5.77;3.60;;;;;;;;;;5082332;28;20608;-58
2021/05/08 00:42:22;;;;;;;4.40;3.83;;;;;;;;;;5084564;28;20189;-59
2021/05/08 00:44:50;;;;;;;4.20;3.60;;;;;;;;;;5084889;28;20195;-57
2021/05/08 00:47:18;;;;;;;5.77;3.90;;;;;;;;;;5082517;28;20204;-57
2021/05/08 00:49:46;;;;;;;5.23;4.40;;;;;;;;;;5069921;28;20205;-58
2021/05/08 00:52:13;;;;;;;5.30;4.10;;;;;;;;;;5083941;28;20281;-58
2021/05/08 00:54:41;;;;;;;5.07;4.30;;;;;;;;;;5066535;28;20652;-57
2021/05/08 00:57:06;;;;;;;7.40;4.73;;;;;;;;;;5084407;28;20193;-57
2021/05/08 00:59:31;;;;;;;5.00;4.07;;;;;;;;;;5086084;28;20738;-57
2021/05/08 01:01:59;;;;;;;5.33;3.93;;;;;;;;;;5089088;28;20192;-56
2021/05/08 01:04:24;;;;;;;5.37;3.77;;;;;;;;;;5087322;28;20200;-58
2021/05/08 01:06:51;;;;;;;3.87;3.53;;;;;;;;;;5088013;28;20680;-57
2021/05/08 01:09:19;;;;;;;5.07;4.30;;;;;;;;;;5087658;28;20199;-59
2021/05/08 01:11:46;;;;;;;7.07;4.20;;;;;;;;;;5087170;28;20204;-58
2021/05/08 01:14:11;;;;;;;8.40;5.67;;;;;;;;;;5070032;28;20179;-58
2021/05/08 01:16:41;;;;;;;6.17;4.43;;;;;;;;;;5071044;28;20179;-57
2021/05/08 01:19:07;;;;;;;6.60;4.23;;;;;;;;;;5087847;28;20242;-62
2021/05/08 01:21:34;;;;;;;5.70;5.10;;;;;;;;;;5070001;28;20643;-57
2021/05/08 01:24:04;;;;;;;6.63;4.97;;;;;;;;;;5085185;28;20186;-57
2021/05/08 01:26:29;;;;;;;6.33;5.00;;;;;;;;;;5084654;28;20255;-57
2021/05/08 01:28:57;;;;;;;7.93;5.47;;;;;;;;;;5070165;28;20247;-58
2021/05/08 01:31:24;;;;;;;6.57;5.10;;;;;;;;;;5087113;28;20208;-58
2021/05/08 01:33:52;;;;;;;7.47;5.40;;;;;;;;;;5087236;28;20184;-58
2021/05/08 01:36:19;;;;;;;6.60;5.90;;;;;;;;;;5087085;28;20180;-57
2021/05/08 01:38:45;;;;;;;7.30;5.47;;;;;;;;;;5085265;28;20180;-58
2021/05/08 01:41:15;;;;;;;7.30;5.67;;;;;;;;;;5087420;28;20208;-57
2021/05/08 01:43:42;;;;;;;7.83;6.57;;;;;;;;;;5087037;28;20883;-58
2021/05/08 01:46:10;;;;;;;6.80;6.00;;;;;;;;;;5086587;28;20176;-58
2021/05/08 01:48:37;;;;;;;7.23;5.43;;;;;;;;;;5067493;28;20260;-57
2021/05/08 01:51:05;;;;;;;6.80;5.73;;;;;;;;;;5088432;28;20734;-57
2021/05/08 01:53:32;;;;;;;8.73;6.30;;;;;;;;;;5087128;28;20238;-58
2021/05/08 01:55:58;;;;;;;9.20;6.40;;;;;;;;;;5087457;28;20187;-56
2021/05/08 01:58:25;;;;;;;8.30;6.50;;;;;;;;;;5081330;28;20560;-57
2021/05/08 02:00:51;;;;;;;8.70;6.27;;;;;;;;;;5085531;28;20843;-57
2021/05/08 02:03:18;;;;;;;9.10;6.30;;;;;;;;;;5087750;28;20302;-57
2021/05/08 02:05:47;;;;;;;8.97;6.80;;;;;;;;;;5087475;28;20284;-57
2021/05/08 02:08:15;;;;;;;7.93;6.10;;;;;;;;;;5083084;28;20255;-57
2021/05/08 02:10:42;;;;;;;9.40;7.43;;;;;;;;;;5086867;28;20206;-57
2021/05/08 02:13:10;;;;;;;8.03;6.27;;;;;;;;;;5088376;28;20192;-57
2021/05/08 02:15:36;;;;;;;9.13;6.43;;;;;;;;;;5086801;28;20185;-57
2021/05/08 02:18:03;;;;;;;10.33;6.60;;;;;;;;;;5087036;28;20219;-58
2021/05/08 02:20:29;;;;;;;8.17;7.27;;;;;;;;;;5088356;28;20704;-58
2021/05/08 02:22:58;;;;;;;8.47;6.27;;;;;;;;;;5081070;28;20189;-57
2021/05/08 02:25:28;;;;;;;8.20;6.60;;;;;;;;;;5083216;28;20189;-57
2021/05/08 02:27:53;;;;;;;10.43;6.93;;;;;;;;;;5079470;28;20215;-56
2021/05/08 02:30:20;;;;;;;11.03;7.43;;;;;;;;;;5083254;28;20692;-58
2021/05/08 02:32:45;;;;;;;9.00;7.13;;;;;;;;;;5084145;28;20185;-57
2021/05/08 02:35:13;;;;;;;9.43;7.23;;;;;;;;;;5082485;28;20181;-58
2021/05/08 02:37:39;;;;;;;8.20;6.87;;;;;;;;;;5082566;28;20191;-57
2021/05/08 02:40:08;;;;;;;7.93;6.10;;;;;;;;;;5084425;28;20307;-58
2021/05/08 02:42:33;;;;;;;8.23;7.00;;;;;;;;;;5088666;28;20229;-57
2021/05/08 02:44:58;;;;;;;11.27;8.97;;;;;;;;;;5084448;28;20185;-59
2021/05/08 02:47:23;;;;;;;9.30;7.77;;;;;;;;;;5081885;28;20699;-58
2021/05/08 02:49:50;;;;;;;13.07;8.40;;;;;;;;;;5069521;28;20284;-58
2021/05/08 02:52:16;;;;;;;9.40;7.63;;;;;;;;;;5084473;28;20191;-57
2021/05/08 02:54:41;;;;;;;8.93;7.03;;;;;;;;;;5084922;28;20185;-56
2021/05/08 02:57:07;;;;;;;8.87;7.00;;;;;;;;;;5086627;28;20817;-59
2021/05/08 02:59:32;;;;;;;9.70;7.20;;;;;;;;;;5069081;28;20345;-58
2021/05/08 03:02:00;;;;;;;9.37;7.30;;;;;;;;;;5080798;28;20185;-58
2021/05/08 03:04:25;;;;;;;10.50;7.60;;;;;;;;;;5084892;28;20313;-59
2021/05/08 03:06:55;;;;;;;14.50;7.63;;;;;;;;;;5084362;28;20272;-59
2021/05/08 03:09:23;;;;;;;9.43;7.67;;;;;;;;;;5087417;28;20207;-57
2021/05/08 03:11:48;;;;;;;7.67;5.80;;;;;;;;;;5084007;28;20210;-57
2021/05/08 03:14:14;;;;;;;9.60;7.63;;;;;;;;;;5081112;28;20291;-57
2021/05/08 03:16:40;;;;;;;10.17;7.80;;;;;;;;;;5082822;28;20573;-58
2021/05/08 03:19:08;;;;;;;9.53;7.30;;;;;;;;;;5064828;28;20182;-58
2021/05/08 03:21:36;;;;;;;9.73;7.00;;;;;;;;;;5086612;28;20273;-57
2021/05/08 03:24:04;;;;;;;9.77;7.93;;;;;;;;;;5082326;28;20176;-58
2021/05/08 03:26:32;;;;;;;9.90;6.70;;;;;;;;;;5081036;28;20183;-58
2021/05/08 03:28:58;;;;;;;7.93;7.13;;;;;;;;;;5083539;28;20240;-57
2021/05/08 03:31:25;;;;;;;10.83;8.00;;;;;;;;;;5086555;28;20809;-58
2021/05/08 03:33:50;;;;;;;11.60;8.60;;;;;;;;;;5085231;28;20596;-58
2021/05/08 03:36:15;;;;;;;13.37;9.47;;;;;;;;;;5086821;28;20177;-59
2021/05/08 03:38:40;;;;;;;11.80;8.87;;;;;;;;;;5075503;28;20703;-58
2021/05/08 03:41:06;;;;;;;14.00;8.17;;;;;;;;;;5085497;28;20224;-56
2021/05/08 03:43:33;;;;;;;12.27;9.03;;;;;;;;;;5067429;28;20267;-58
2021/05/08 03:45:59;;;;;;;11.10;8.50;;;;;;;;;;5065137;28;20198;-57
2021/05/08 03:48:29;;;;;;;12.10;8.87;;;;;;;;;;5087518;28;20200;-59
2021/05/08 03:50:56;;;;;;;12.37;8.13;;;;;;;;;;5066154;28;20198;-56
2021/05/08 03:53:22;;;;;;;9.50;8.13;;;;;;;;;;5084196;28;20184;-57
2021/05/08 03:55:51;;;;;;;12.77;8.37;;;;;;;;;;5083889;28;20755;-57
2021/05/08 03:58:19;;;;;;;11.70;8.77;;;;;;;;;;5083376;28;20208;-59
2021/05/08 04:00:44;;;;;;;10.93;8.17;;;;;;;;;;5079282;28;20201;-57
2021/05/08 04:03:12;;;;;;;11.33;9.20;;;;;;;;;;5082268;28;20555;-58
2021/05/08 04:05:39;;;;;;;12.03;8.60;;;;;;;;;;5076973;28;20192;-58
2021/05/08 04:08:06;;;;;;;11.37;8.00;;;;;;;;;;5082361;28;20227;-58
2021/05/08 04:10:32;;;;;;;13.03;8.97;;;;;;;;;;5088085;28;20275;-58
2021/05/08 04:12:57;;;;;;;12.33;9.10;;;;;;;;;;5072180;28;20168;-58
2021/05/08 04:15:27;;;;;;;12.87;9.30;;;;;;;;;;5074449;28;20184;-57
2021/05/08 04:17:57;;;;;;;13.03;9.47;;;;;;;;;;5091808;28;20234;-58
2021/05/08 04:20:24;;;;;;;17.03;10.83;;;;;;;;;;5092198;28;20234;-57
2021/05/08 04:22:51;;;;;;;15.87;9.97;;;;;;;;;;5093291;28;20191;-58
2021/05/08 04:25:19;;;;;;;12.83;9.67;;;;;;;;;;5088372;28;20674;-58
2021/05/08 04:27:46;;;;;;;14.13;9.57;;;;;;;;;;5089734;28;20196;-58
2021/05/08 04:30:12;;;;;;;5.23;3.33;;;;;;;;;;5092047;28;20838;-56
2021/05/08 04:32:39;;;;;;;5.40;3.93;;;;;;;;;;5094127;28;20181;-59
2021/05/08 04:35:04;;;;;;;9.53;7.00;;;;;;;;;;5090656;28;20545;-57
2021/05/08 04:37:32;;;;;;;7.53;3.40;;;;;;;;;;5087240;28;20184;-58
2021/05/08 04:39:57;;;;;;;6.37;5.20;;;;;;;;;;5092106;28;20289;-59
2021/05/08 04:42:25;;;;;;;13.27;8.77;;;;;;;;;;5084579;28;20222;-58
2021/05/08 04:44:52;;;;;;;6.30;5.00;;;;;;;;;;5066757;28;20314;-56
2021/05/08 04:47:20;;;;;;;7.13;5.27;;;;;;;;;;5088237;28;20199;-56
2021/05/08 04:49:46;;;;;;;5.70;4.50;;;;;;;;;;5087141;28;20197;-57
2021/05/08 04:52:11;;;;;;;8.23;6.43;;;;;;;;;;5086606;28;20184;-58
2021/05/08 04:54:36;;;;;;;5.87;4.93;;;;;;;;;;5082800;28;20181;-58
2021/05/08 04:57:01;;;;;;;8.83;7.00;;;;;;;;;;5074672;28;20196;-58
2021/05/08 04:59:31;;;;;;;8.27;5.03;;;;;;;;;;5089324;28;20220;-57
2021/05/08 05:01:56;;;;;;;7.77;6.20;;;;;;;;;;5089001;28;20659;-57
2021/05/08 05:04:21;;;;;;;5.60;5.03;;;;;;;;;;5078133;28;20181;-58
2021/05/08 05:06:47;;;;;;;6.63;5.63;;;;;;;;;;5070193;28;20180;-59
2021/05/08 05:09:14;;;;;;;10.80;6.80;;;;;;;;;;5090993;28;20372;-57
2021/05/08 05:11:44;;;;;;;8.00;5.23;;;;;;;;;;5074886;28;20180;-58
2021/05/08 05:14:09;;;;;;;5.97;4.67;;;;;;;;;;5089909;28;20199;-59
2021/05/08 05:16:37;;;;;;;5.23;4.20;;;;;;;;;;5090911;28;20639;-57
2021/05/08 05:19:05;;;;;;;9.60;6.53;;;;;;;;;;5089554;28;20189;-59
2021/05/08 05:21:32;;;;;;;4.33;2.83;;;;;;;;;;5092328;28;20245;-57
2021/05/08 05:23:58;;;;;;;8.53;5.87;;;;;;;;;;5088437;28;20184;-58
2021/05/08 05:26:28;;;;;;;9.70;8.60;;;;;;;;;;5088351;28;20197;-57
2021/05/08 05:28:55;;;;;;;10.17;7.57;;;;;;;;;;5085357;28;20226;-57
2021/05/08 05:31:23;;;;;;;4.20;3.13;;;;;;;;;;5068891;28;20198;-57
2021/05/08 05:33:48;;;;;;;8.87;7.60;;;;;;;;;;5070824;28;20226;-58
2021/05/08 05:36:13;;;;;;;6.47;5.07;;;;;;;;;;5086772;28;20765;-58
2021/05/08 05:38:41;;;;;;;6.57;4.67;;;;;;;;;;5087779;28;20185;-58
2021/05/08 05:41:09;;;;;;;8.07;3.80;;;;;;;;;;5071865;28;20650;-58
2021/05/08 05:43:34;;;;;;;14.80;10.27;;;;;;;;;;5088967;28;20639;-57
2021/05/08 05:45:59;;;;;;;8.87;6.77;;;;;;;;;;5086029;28;20192;-57
2021/05/08 05:48:24;;;;;;;12.07;8.87;;;;;;;;;;5083331;28;20212;-57
2021/05/08 05:50:52;;;;;;;11.07;7.47;;;;;;;;;;5069907;28;20199;-58
2021/05/08 05:53:17;;;;;;;11.67;8.57;;;;;;;;;;5069108;28;20929;-57
2021/05/08 05:55:43;;;;;;;13.67;9.67;;;;;;;;;;5085595;28;20176;-56
2021/05/08 05:58:10;;;;;;;9.30;6.37;;;;;;;;;;5085959;28;20241;-57
2021/05/08 06:00:37;;;;;;;8.80;6.80;;;;;;;;;;5087111;28;20204;-57
2021/05/08 06:03:04;;;;;;;11.10;7.63;;;;;;;;;;5088451;28;20588;-57
2021/05/08 06:05:30;;;;;;;10.77;8.40;;;;;;;;;;5085395;28;20223;-57
2021/05/08 06:07:55;;;;;;;14.30;11.07;;;;;;;;;;5079603;28;20228;-58
2021/05/08 06:10:23;;;;;;;11.30;9.73;;;;;;;;;;5084218;28;20197;-59
2021/05/08 06:12:48;;;;;;;13.03;8.33;;;;;;;;;;5079478;28;20184;-58
2021/05/08 06:15:13;;;;;;;10.03;8.17;;;;;;;;;;5082858;28;20594;-59
2021/05/08 06:17:39;;;;;;;13.30;10.70;;;;;;;;;;5083972;28;20177;-62
2021/05/08 06:20:08;;;;;;;12.37;9.37;;;;;;;;;;5085572;28;20201;-58
2021/05/08 06:22:33;;;;;;;15.90;9.73;;;;;;;;;;5087582;28;20761;-59
2021/05/08 06:24:58;;;;;;;9.77;7.43;;;;;;;;;;5080572;28;20184;-59
2021/05/08 06:27:28;;;;;;;12.33;10.10;;;;;;;;;;5082320;28;20216;-57
2021/05/08 06:29:53;;;;;;;11.07;8.90;;;;;;;;;;5060717;28;20287;-59
2021/05/08 06:32:21;;;;;;;14.83;11.50;;;;;;;;;;5080704;28;20165;-56
2021/05/08 06:34:46;;;;;;;11.83;7.20;;;;;;;;;;5079461;28;20544;-59
2021/05/08 06:37:11;;;;;;;12.47;8.50;;;;;;;;;;5064630;28;20184;-59
2021/05/08 06:39:39;;;;;;;11.40;10.03;;;;;;;;;;5086806;28;20215;-59
2021/05/08 06:42:04;;;;;;;10.00;8.93;;;;;;;;;;5087314;28;20214;-59
2021/05/08 06:44:29;;;;;;;11.93;9.47;;;;;;;;;;5066662;28;20189;-58
2021/05/08 06:46:55;;;;;;;11.40;9.03;;;;;;;;;;5080692;28;20176;-58
2021/05/08 06:49:20;;;;;;;10.77;9.23;;;;;;;;;;5085931;28;20685;-61
2021/05/08 06:51:45;;;;;;;9.40;7.80;;;;;;;;;;5082921;28;20663;-61
2021/05/08 06:54:10;;;;;;;8.10;6.70;;;;;;;;;;5087962;28;20165;-59
2021/05/08 06:56:41;;;;;;;10.50;7.07;;;;;;;;;;5082123;28;20276;-58
2021/05/08 06:59:06;;;;;;;10.90;6.83;;;;;;;;;;5085088;28;20241;-58
2021/05/08 07:01:31;;;;;;;7.93;6.38;;;;;;;;;;5081125;28;20185;-59
2021/05/08 07:03:57;;;;;;;7.65;6.93;;;;;;;;;;5077538;28;20212;-62
2021/05/08 07:06:25;;;;;;;7.22;6.53;;;;;;;;;;5079678;28;20172;-61
2021/05/08 07:08:53;;;;;;;7.47;6.78;;;;;;;;;;5085287;28;20270;-59
2021/05/08 07:11:20;;;;;;;9.15;7.05;;;;;;;;;;5084287;28;20535;-62
2021/05/08 07:13:45;;;;;;;7.68;6.93;;;;;;;;;;5079256;28;20387;-57
2021/05/08 07:16:10;;;;;;;7.67;6.90;;;;;;;;;;5064103;28;20601;-57
2021/05/08 07:18:36;;;;;;;8.10;7.13;;;;;;;;;;5077416;28;20458;-56
2021/05/08 07:21:01;;;;;;;7.75;7.15;;;;;;;;;;5071850;28;20975;-56
2021/05/08 07:23:26;;;;;;;7.28;6.53;;;;;;;;;;5078785;28;20187;-57
2021/05/08 07:25:54;;;;;;;10.02;7.90;;;;;;;;;;5079581;28;20231;-57
2021/05/08 07:28:23;;;;;;;7.85;7.20;;;;;;;;;;5074145;28;20804;-61
2021/05/08 07:30:50;;;;;;;7.55;6.85;;;;;;;;;;5071997;28;20250;-59
2021/05/08 07:33:18;;;;;;;7.57;6.88;;;;;;;;;;5070939;28;20185;-59
2021/05/08 07:35:44;;;;;;;7.40;6.65;;;;;;;;;;5052658;28;20187;-59
2021/05/08 07:38:11;;;;;;;7.20;6.50;;;;;;;;;;5054105;28;20188;-59
2021/05/08 07:40:39;;;;;;;7.53;6.93;;;;;;;;;;5072687;28;20326;-61
2021/05/08 07:43:10;;;;;;;8.52;6.90;;;;;;;;;;5071099;28;20277;-61
2021/05/08 07:45:38;;;;;;;8.02;7.32;;;;;;;;;;5070324;28;20206;-60
2021/05/08 07:48:06;;;;;;;6.85;6.20;;;;;;;;;;5071849;28;20223;-59
2021/05/08 07:50:32;;;;;;;6.68;5.95;;;;;;;;;;5072106;28;20215;-60
2021/05/08 07:53:02;;;;;;;6.95;6.25;;;;;;;;;;5073132;28;20185;-60
2021/05/08 07:55:28;;;;;;;6.07;5.57;;;;;;;;;;5073367;28;20179;-59
2021/05/08 07:57:55;;;;;;;6.72;6.13;;;;;;;;;;5071481;28;20169;-60
2021/05/08 08:00:23;;;;;;;8.20;7.45;;;;;;;;;;5070653;28;20899;-60
2021/05/08 08:02:50;;;;;;;7.22;6.53;;;;;;;;;;5054405;28;20660;-61
2021/05/08 08:05:16;;;;;;;7.32;6.72;;;;;;;;;;5071733;28;20211;-61
2021/05/08 08:07:44;;;;;;;6.78;6.18;;;;;;;;;;5070533;28;20204;-62
2021/05/08 08:10:09;;;;;;;6.95;6.00;;;;;;;;;;5068984;28;20280;-60
2021/05/08 08:12:35;;;;;;;5.95;5.45;;;;;;;;;;5082041;28;20647;-61
2021/05/08 08:15:02;;;;;;;6.95;6.30;;;;;;;;;;5084596;28;20199;-57
2021/05/08 08:17:31;;;;;;;4.90;4.25;;;;;;;;;;5079765;28;20231;-58
2021/05/08 08:19:59;;;;;;;5.15;4.68;;;;;;;;;;5080432;28;20454;-57
2021/05/08 08:22:26;;;;;;;6.40;5.80;;;;;;;;;;5079363;28;20188;-58
2021/05/08 08:24:51;;;;;;;6.65;6.05;;;;;;;;;;5087285;28;20659;-58
2021/05/08 08:27:16;;;;;;;5.93;5.43;;;;;;;;;;5079374;28;20213;-57
2021/05/08 08:29:44;;;;;;;6.03;5.53;;;;;;;;;;5068081;28;20207;-59
2021/05/08 08:32:09;;;;;;;7.38;6.20;;;;;;;;;;5076464;28;20572;-59
2021/05/08 08:34:37;;;;;;;5.67;5.10;;;;;;;;;;5086195;28;20161;-58
2021/05/08 08:37:07;;;;;;;6.63;6.03;;;;;;;;;;5080284;28;20431;-56
2021/05/08 08:39:32;;;;;;;6.07;5.47;;;;;;;;;;5064747;28;20751;-59
2021/05/08 08:41:57;;;;;;;6.00;5.40;;;;;;;;;;5067618;28;20189;-59
2021/05/08 08:44:23;;;;;;;5.32;4.82;;;;;;;;;;5074026;28;20644;-58
2021/05/08 08:46:48;;;;;;;6.22;5.68;;;;;;;;;;5063102;28;20193;-58
2021/05/08 08:49:14;;;;;;;6.20;5.53;;;;;;;;;;5072719;28;20212;-57
2021/05/08 08:51:40;;;;;;;6.40;5.25;;;;;;;;;;5075253;28;20422;-58
2021/05/08 08:54:08;;;;;;;5.88;5.10;;;;;;;;;;5073791;28;20185;-58
2021/05/08 08:56:44;;;;;;;4.22;3.60;;;;;;;;;;5076313;28;20546;-58
2021/05/08 08:59:20;;;;;;;5.07;3.90;;;;;;;;;;5074551;28;20212;-58
2021/05/08 09:01:47;;;;;;;4.22;3.75;;;;;;;;;;5078127;28;20591;-56
2021/05/08 09:04:16;;;;;;;3.67;3.30;;;;;;;;;;5069913;28;20206;-57
2021/05/08 09:06:42;;;;;;;4.28;3.13;;;;;;;;;;5079940;28;20181;-57
2021/05/08 09:09:08;;;;;;;3.95;3.30;;;;;;;;;;5064007;28;20205;-57
2021/05/08 09:11:34;;;;;;;3.78;3.38;;;;;;;;;;5079570;28;20268;-58
2021/05/08 09:14:17;;;;;;;4.90;3.67;;;;;;;;;;5088912;28;20263;-57
2021/05/08 09:17:01;;;;;;;4.65;3.70;;;;;;;;;;5089139;28;20725;-57
2021/05/08 09:19:28;;;;;;;3.53;3.22;;;;;;;;;;5079529;28;20196;-58
2021/05/08 09:21:53;;;;;;;4.15;3.55;;;;;;;;;;5083399;28;20180;-58
2021/05/08 09:24:21;;;;;;;6.23;3.20;;;;;;;;;;5084982;28;20184;-57
2021/05/08 09:26:49;;;;;;;3.75;3.42;;;;;;;;;;5089268;28;20463;-56
2021/05/08 09:29:24;;;;;;;3.65;3.25;;;;;;;;;;5067030;28;20220;-57
2021/05/08 09:32:00;;;;;;;3.72;3.33;;;;;;;;;;5081784;28;20647;-59
2021/05/08 09:34:25;;;;;;;4.05;3.65;;;;;;;;;;5085542;28;20173;-58
2021/05/08 09:36:54;;;;;;;4.63;3.55;;;;;;;;;;5086420;28;20276;-58
2021/05/08 09:39:35;;;;;;;6.25;4.07;;;;;;;;;;5074347;28;20729;-59
2021/05/08 09:42:00;;;;;;;4.70;3.95;;;;;;;;;;5084309;28;20249;-57
2021/05/08 09:44:28;;;;;;;4.53;4.10;;;;;;;;;;5083825;28;20602;-58
2021/05/08 09:46:55;;;;;;;5.78;4.22;;;;;;;;;;5082425;28;20218;-58
2021/05/08 09:49:23;;;;;;;6.75;4.32;;;;;;;;;;5073938;28;20209;-60
2021/05/08 09:51:58;;;;;;;5.57;4.45;;;;;;;;;;5082028;28;20181;-59
2021/05/08 09:54:24;;;;;;;5.40;4.70;;;;;;;;;;5077644;28;20180;-58
2021/05/08 09:56:49;;;;;;;5.22;4.72;;;;;;;;;;5075992;28;20595;-59
2021/05/08 09:59:31;;;;;;;6.22;4.82;;;;;;;;;;5078449;28;20196;-59
2021/05/08 10:01:59;;;;;;;5.28;4.05;;;;;;;;;;5081805;28;20839;-58
2021/05/08 10:04:31;;;;;;;7.15;5.57;;;;;;;;;;5068947;28;20204;-61
2021/05/08 10:07:09;;;;;;;5.72;4.85;;;;;;;;;;5053681;28;20189;-59
2021/05/08 10:09:38;;;;;;;5.63;5.13;;;;;;;;;;5049458;28;20269;-60
2021/05/08 10:12:07;;;;;;;6.28;5.57;;;;;;;;;;5073741;28;20569;-62
2021/05/08 10:14:36;;;;;;;6.82;5.82;;;;;;;;;;5070760;28;20216;-58
2021/05/08 10:17:04;;;;;;;7.13;6.43;;;;;;;;;;5070504;28;20550;-59
2021/05/08 10:19:32;;;;;;;7.15;6.45;;;;;;;;;;5073462;28;20204;-59
2021/05/08 10:21:58;;;;;;;6.38;5.78;;;;;;;;;;5071132;28;20189;-59
2021/05/08 10:24:28;;;;;;;6.65;5.95;;;;;;;;;;5072182;28;20719;-57
2021/05/08 10:27:00;;;;;;;6.85;6.07;;;;;;;;;;5053970;28;20567;-57
2021/05/08 10:29:26;;;;;;;6.60;5.50;;;;;;;;;;5072861;28;20212;-55
2021/05/08 10:31:54;;;;;;;5.88;4.35;;;;;;;;;;5073650;28;21671;-58
2021/05/08 10:34:32;;;;;;;3.15;2.75;;;;;;;;;;5073754;28;20607;-59
2021/05/08 10:37:05;;;;;;;6.80;5.75;;;;;;;;;;5074109;28;20192;-59
2021/05/08 10:39:49;;;;;;;7.05;5.28;;;;;;;;;;5054533;28;20573;-61
2021/05/08 10:42:31;;;;;;;7.28;4.70;;;;;;;;;;5072802;28;20172;-60
2021/05/08 10:44:56;;;;;;;5.80;5.20;;;;;;;;;;5072677;28;20188;-60
2021/05/08 10:47:26;;;;;;;6.03;5.13;;;;;;;;;;5072358;28;20598;-57
2021/05/08 10:50:18;;;;;;;6.57;4.90;;;;;;;;;;5072632;28;20254;-58
2021/05/08 10:53:10;;;;;;;4.88;4.35;;;;;;;;;;5066498;28;20189;-61
2021/05/08 10:55:41;;;;;;;7.53;4.03;;;;;;;;;;5067147;28;20724;-59
2021/05/08 10:58:20;;;;;;;7.22;4.38;;;;;;;;;;5054241;28;20734;-59
2021/05/08 11:00:48;;;;;;;5.82;4.03;;;;;;;;;;5072777;28;20486;-58
2021/05/08 11:03:14;;;;;;;6.22;4.32;;;;;;;;;;5073680;28;20582;-59
2021/05/08 11:05:53;;;;;;;7.65;4.82;;;;;;;;;;5071169;28;20266;-59
2021/05/08 11:08:29;;;;;;;8.75;4.60;;;;;;;;;;5072594;28;20266;-60
2021/05/08 11:11:00;;;;;;;5.30;4.10;;;;;;;;;;5072364;28;20207;-59
2021/05/08 11:13:26;;;;;;;2.95;2.25;;;;;;;;;;5065074;28;20188;-59
2021/05/08 11:15:54;;;;;;;2.58;1.90;;;;;;;;;;5079316;28;20188;-58
2021/05/08 11:18:39;;;;;;;4.30;3.65;;;;;;;;;;5078373;28;20288;-56
2021/05/08 11:21:10;;;;;;;4.40;3.30;;;;;;;;;;5083603;28;20270;-57
2021/05/08 11:23:44;;;;;;;3.40;3.10;;;;;;;;;;5082075;28;20757;-56
2021/05/08 11:26:27;;;;;;;3.63;3.33;;;;;;;;;;5060836;28;20203;-56
2021/05/08 11:28:58;;;;;;;5.27;2.97;;;;;;;;;;5079356;28;20203;-57
2021/05/08 11:31:26;;;;;;;4.50;3.73;;;;;;;;;;5082400;28;20184;-56
2021/05/08 11:34:02;;;;;;;4.03;3.15;;;;;;;;;;5084558;28;20180;-58
2021/05/08 11:36:30;;;;;;;4.00;2.80;;;;;;;;;;5060061;28;20188;-59
2021/05/08 11:39:11;;;;;;;4.00;3.23;;;;;;;;;;5078245;28;20557;-58
2021/05/08 11:41:36;;;;;;;2.90;2.60;;;;;;;;;;5080447;28;20648;-59
2021/05/08 11:44:02;;;;;;;4.50;3.13;;;;;;;;;;5082575;28;20191;-56
2021/05/08 11:46:32;;;;;;;4.13;3.50;;;;;;;;;;5060710;28;20250;-59
2021/05/08 11:48:59;;;;;;;5.27;2.73;;;;;;;;;;5080555;28;20295;-57
2021/05/08 11:51:25;;;;;;;3.27;2.63;;;;;;;;;;5081160;28;20199;-58
2021/05/08 11:54:14;;;;;;;4.47;3.33;;;;;;;;;;5081734;28;20642;-62
2021/05/08 11:56:41;;;;;;;4.30;2.87;;;;;;;;;;5074148;28;20484;-60
2021/05/08 11:59:07;;;;;;;2.97;2.63;;;;;;;;;;5076973;28;20225;-59
2021/05/08 12:01:33;;;;;;;5.03;2.90;;;;;;;;;;5078873;28;20176;-61
2021/05/08 12:04:01;;;;;;;2.93;2.63;;;;;;;;;;5065571;28;20199;-60
2021/05/08 12:06:29;;;;;;;2.63;2.20;;;;;;;;;;5079166;28;20188;-60
2021/05/08 12:08:59;;;;;;;5.03;2.87;;;;;;;;;;5082036;28;20227;-57
2021/05/08 12:11:26;;;;;;;2.63;2.00;;;;;;;;;;5077530;28;20262;-57
2021/05/08 12:13:51;;;;;;;4.87;2.10;;;;;;;;;;5087624;28;20179;-57
2021/05/08 12:16:22;;;;;;;7.03;2.60;;;;;;;;;;5080033;28;20177;-56
2021/05/08 12:18:47;;;;;;;2.37;1.90;;;;;;;;;;5084517;28;20279;-58
2021/05/08 12:21:15;;;;;;;3.37;1.73;;;;;;;;;;5080228;28;20304;-59
2021/05/08 12:23:41;;;;;;;3.13;2.23;;;;;;;;;;5078042;28;20344;-58
2021/05/08 12:26:06;;;;;;;4.60;2.73;;;;;;;;;;5066317;28;20275;-57
2021/05/08 12:28:35;;;;;;;3.27;2.50;;;;;;;;;;5082705;28;20204;-57
2021/05/08 12:31:17;;;;;;;4.13;2.50;;;;;;;;;;5081237;28;20236;-57
2021/05/08 12:33:42;;;;;;;3.67;2.50;;;;;;;;;;5083174;28;20640;-57
2021/05/08 12:36:12;;;;;;;3.87;2.23;;;;;;;;;;5072253;28;20187;-57
2021/05/08 12:38:37;;;;;;;3.33;2.40;;;;;;;;;;5082875;28;20652;-55
2021/05/08 12:41:23;;;;;;;3.93;2.90;;;;;;;;;;5083195;28;20212;-57
2021/05/08 12:43:50;;;;;;;2.60;2.40;;;;;;;;;;5065924;28;20202;-56
2021/05/08 12:46:16;;;;;;;2.47;1.67;;;;;;;;;;5085505;28;20195;-56
2021/05/08 12:48:43;;;;;;;1.73;1.63;;;;;;;;;;5085121;28;20181;-57
2021/05/08 12:51:29;;;;;;;3.03;1.43;;;;;;;;;;5082247;28;20304;-54
2021/05/08 12:54:15;;;;;;;1.57;1.47;;;;;;;;;;5083425;28;20230;-56
2021/05/08 12:56:43;;;;;;;1.57;1.03;;;;;;;;;;5065488;28;20265;-55
2021/05/08 12:59:08;;;;;;;2.97;1.70;;;;;;;;;;5066056;28;20211;-57
2021/05/08 13:01:36;;;;;;;5.10;2.43;;;;;;;;;;5086124;28;20181;-56
2021/05/08 13:04:03;;;;;;;2.17;1.90;;;;;;;;;;5084638;28;20489;-60
2021/05/08 13:06:28;;;;;;;2.43;1.87;;;;;;;;;;5084035;28;20195;-61
2021/05/08 13:08:56;;;;;;;3.70;2.10;;;;;;;;;;5083466;28;20668;-58
2021/05/08 13:11:39;;;;;;;7.03;2.50;;;;;;;;;;5084934;28;20842;-57
2021/05/08 13:14:19;;;;;;;1.57;1.47;;;;;;;;;;5065868;28;20192;-59
2021/05/08 13:16:45;;;;;;;2.43;1.70;;;;;;;;;;5082684;28;20549;-60
2021/05/08 13:19:11;;;;;;;6.60;2.83;;;;;;;;;;5082712;28;20204;-59
2021/05/08 13:21:39;;;;;;;1.90;1.33;;;;;;;;;;5084539;28;20268;-57
2021/05/08 13:24:08;;;;;;;1.60;1.50;;;;;;;;;;5084048;28;20679;-58
2021/05/08 13:26:36;;;;;;;2.20;1.93;;;;;;;;;;5083755;28;20191;-56
2021/05/08 13:29:02;;;;;;;2.97;1.50;;;;;;;;;;5084603;28;20687;-57
2021/05/08 13:31:27;;;;;;;2.80;2.10;;;;;;;;;;5078497;28;20212;-56
2021/05/08 13:33:52;;;;;;;4.17;1.97;;;;;;;;;;5088319;28;20180;-59
2021/05/08 13:36:20;;;;;;;1.47;1.30;;;;;;;;;;5083285;28;20181;-58
2021/05/08 13:38:49;;;;;;;1.40;1.30;;;;;;;;;;5084077;28;20227;-57
2021/05/08 13:41:17;;;;;;;1.73;1.57;;;;;;;;;;5067848;28;20192;-59
2021/05/08 13:43:44;;;;;;;2.50;1.73;;;;;;;;;;5085869;28;20176;-57
2021/05/08 13:46:09;;;;;;;1.77;1.53;;;;;;;;;;5070125;28;20189;-58
2021/05/08 13:48:37;;;;;;;2.90;1.90;;;;;;;;;;5080987;28;20257;-58
2021/05/08 13:51:02;;;;;;;2.10;1.90;;;;;;;;;;5084848;28;20290;-59
2021/05/08 13:53:27;;;;;;;4.30;1.93;;;;;;;;;;5084874;28;20675;-58
2021/05/08 13:55:52;;;;;;;1.80;1.70;;;;;;;;;;5077645;28;20526;-57
2021/05/08 13:58:20;;;;;;;2.10;1.40;;;;;;;;;;5079466;28;20552;-58
2021/05/08 14:00:46;;;;;;;1.97;1.40;;;;;;;;;;5087647;28;20197;-57
2021/05/08 14:03:11;;;;;;;4.13;1.87;;;;;;;;;;5083311;28;20197;-60
2021/05/08 14:05:36;;;;;;;2.80;1.77;;;;;;;;;;5081788;28;20184;-57
2021/05/08 14:08:01;;;;;;;1.57;1.40;;;;;;;;;;5070046;28;20833;-59
2021/05/08 14:10:27;;;;;;;2.97;1.30;;;;;;;;;;5078325;28;20192;-56
2021/05/08 14:12:54;;;;;;;1.33;1.23;;;;;;;;;;5073444;28;20197;-56
2021/05/08 14:15:22;;;;;;;1.70;1.20;;;;;;;;;;5086276;28;20188;-60
2021/05/08 14:17:49;;;;;;;0.90;0.80;;;;;;;;;;5066784;28;20196;-57
2021/05/08 14:20:17;;;;;;;1.03;1.00;;;;;;;;;;5082762;28;20220;-57
2021/05/08 14:22:42;;;;;;;1.70;1.30;;;;;;;;;;5087225;28;20651;-56
2021/05/08 14:25:10;;;;;;;0.97;0.90;;;;;;;;;;5082538;28;20185;-56
2021/05/08 14:27:39;;;;;;;1.30;0.90;;;;;;;;;;5080809;28;20266;-57
2021/05/08 14:30:10;;;;;;;1.50;1.20;;;;;;;;;;5062299;28;20216;-57
2021/05/08 14:32:38;;;;;;;1.27;1.17;;;;;;;;;;5082455;28;20202;-58
2021/05/08 14:35:05;;;;;;;1.23;1.10;;;;;;;;;;5086860;28;20191;-57
2021/05/08 14:37:33;;;;;;;1.03;1.00;;;;;;;;;;5084584;28;20276;-56
2021/05/08 14:40:00;;;;;;;0.97;0.97;;;;;;;;;;5082660;28;20215;-58
2021/05/08 14:42:28;;;;;;;2.67;1.70;;;;;;;;;;5074286;28;20595;-59
2021/05/08 14:44:55;;;;;;;2.87;2.07;;;;;;;;;;5077426;28;20227;-56